Time;durP1;ratioP1;P1;durP2;ratioP2;P2;SDS_P1;SDS_P2;PMS_P1;PMS_P2;Temp;Humidity;BMP_temperature;BMP_pressure;BME280_temperature;BME280_humidity;BME280_pressure;Samples;Min_cycle;Max_cycle;Signal;HPM_P1;HPM_P2
2022/09/02 00:01:28;;;;;;;35.10;20.42;;;;;;;14.56;66.95;101489.91;5032243;28;20341;-73
2022/09/02 00:04:00;;;;;;;39.22;23.50;;;;;;;14.50;67.92;101480.44;5023621;28;20155;-73
2022/09/02 00:06:26;;;;;;;40.70;28.58;;;;;;;14.47;67.47;101479.84;5031717;28;20065;-72
2022/09/02 00:08:52;;;;;;;53.78;37.80;;;;;;;14.45;69.92;101477.25;5031404;28;20171;-73
2022/09/02 00:11:21;;;;;;;58.00;36.95;;;;;;;14.41;67.57;101480.34;5031972;28;20476;-73
2022/09/02 00:13:47;;;;;;;57.22;39.42;;;;;;;14.41;68.55;101475.78;5032201;28;20056;-73
2022/09/02 00:16:13;;;;;;;53.97;39.97;;;;;;;14.38;68.54;101477.84;5049474;28;20091;-73
2022/09/02 00:18:40;;;;;;;62.83;41.72;;;;;;;14.33;66.85;101476.41;5029842;28;20100;-73
2022/09/02 00:21:06;;;;;;;60.03;42.47;;;;;;;14.33;69.63;101460.16;5026954;28;20025;-73
2022/09/02 00:23:32;;;;;;;60.65;41.58;;;;;;;14.32;69.73;101471.13;5031742;28;20396;-73
2022/09/02 00:25:57;;;;;;;45.72;30.95;;;;;;;14.30;69.08;101467.66;5031211;28;20444;-73
2022/09/02 00:28:23;;;;;;;38.25;23.13;;;;;;;14.28;69.80;101469.63;5030456;28;20025;-73
2022/09/02 00:30:48;;;;;;;25.73;13.15;;;;;;;14.30;68.83;101464.94;5032591;28;20035;-73
2022/09/02 00:33:14;;;;;;;27.20;13.40;;;;;;;14.28;69.62;101470.47;5030288;28;20025;-73
2022/09/02 00:35:39;;;;;;;20.77;8.45;;;;;;;14.23;69.47;101459.19;5031066;28;20025;-73
2022/09/02 00:38:05;;;;;;;20.35;7.38;;;;;;;14.22;70.11;101462.84;5032559;28;20357;-73
2022/09/02 00:40:32;;;;;;;14.73;4.75;;;;;;;14.21;69.11;101466.53;5030691;28;20040;-73
2022/09/02 00:42:57;;;;;;;9.13;3.88;;;;;;;14.19;69.82;101462.22;5032138;28;20025;-73
2022/09/02 00:45:23;;;;;;;11.30;3.85;;;;;;;14.14;69.31;101459.88;5030976;28;20388;-73
2022/09/02 00:47:51;;;;;;;12.43;3.88;;;;;;;14.11;69.57;101460.13;5029774;28;20108;-73
2022/09/02 00:50:21;;;;;;;14.25;4.40;;;;;;;14.10;69.73;101458.41;5031577;28;20157;-73
2022/09/02 00:52:52;;;;;;;12.57;4.05;;;;;;;14.06;69.08;101451.53;5030694;28;20075;-73
2022/09/02 00:55:27;;;;;;;12.15;3.80;;;;;;;14.03;68.32;101455.34;5032073;28;20026;-73
2022/09/02 00:57:58;;;;;;;10.50;3.85;;;;;;;14.00;69.44;101455.59;5028765;28;20067;-73
2022/09/02 01:00:26;;;;;;;12.57;4.78;;;;;;;13.98;69.89;101455.69;5043348;28;20033;-72
2022/09/02 01:02:58;;;;;;;12.93;4.38;;;;;;;13.95;69.27;101450.53;5030854;28;20078;-72
2022/09/02 01:05:25;;;;;;;14.60;4.47;;;;;;;13.96;67.66;101451.38;5030936;28;20164;-73
2022/09/02 01:07:53;;;;;;;13.63;4.10;;;;;;;13.93;69.80;101441.69;5029048;28;20034;-73
2022/09/02 01:10:28;;;;;;;13.73;4.10;;;;;;;13.92;69.05;101450.75;5030517;28;20018;-73
2022/09/02 01:12:59;;;;;;;10.68;4.00;;;;;;;13.92;69.22;101445.34;5030447;28;20159;-73
2022/09/02 01:15:25;;;;;;;12.73;3.70;;;;;;;13.93;69.97;101444.38;5027397;28;20095;-73
2022/09/02 01:17:52;;;;;;;10.07;4.00;;;;;;;13.91;69.60;101449.06;5028676;28;20033;-73
2022/09/02 01:20:24;;;;;;;9.88;3.78;;;;;;;13.87;68.90;101442.16;5027999;28;20040;-73
2022/09/02 01:22:50;;;;;;;13.23;4.22;;;;;;;13.85;69.38;101440.56;5029908;28;20448;-73
2022/09/02 01:25:26;;;;;;;12.07;4.10;;;;;;;13.82;68.62;101441.63;5030059;28;20036;-73
2022/09/02 01:27:52;;;;;;;9.90;3.45;;;;;;;13.79;69.55;101440.06;5030026;28;20496;-73
2022/09/02 01:30:21;;;;;;;10.13;3.40;;;;;;;13.80;68.92;101432.81;5029093;28;20083;-73
2022/09/02 01:32:46;;;;;;;10.77;3.85;;;;;;;13.80;69.44;101439.06;5029656;28;20060;-73
2022/09/02 01:35:12;;;;;;;8.32;3.35;;;;;;;13.81;70.28;101434.53;5031433;28;20372;-73
2022/09/02 01:37:38;;;;;;;18.80;3.78;;;;;;;13.77;69.23;101449.25;5030094;28;20079;-73
2022/09/02 01:40:09;;;;;;;8.68;3.75;;;;;;;13.76;69.27;101440.31;5029916;28;20333;-73
2022/09/02 01:42:35;;;;;;;10.85;3.88;;;;;;;13.78;69.78;101432.06;5031072;28;20037;-73
2022/09/02 01:45:00;;;;;;;10.90;3.80;;;;;;;13.76;68.69;101429.50;5029737;28;20366;-73
2022/09/02 01:47:26;;;;;;;6.57;3.50;;;;;;;13.76;69.32;101423.22;5028164;28;20021;-73
2022/09/02 01:49:52;;;;;;;10.02;3.70;;;;;;;13.75;68.67;101426.91;5029479;28;20111;-73
2022/09/02 01:52:19;;;;;;;10.68;4.03;;;;;;;13.74;70.04;101425.19;5029526;28;20489;-73
2022/09/02 01:54:45;;;;;;;9.55;3.83;;;;;;;13.69;68.87;101432.78;5030328;28;20049;-73
2022/09/02 01:57:11;;;;;;;11.63;4.15;;;;;;;13.68;70.00;101431.06;5026314;28;20130;-73
2022/09/02 01:59:36;;;;;;;12.57;4.00;;;;;;;13.61;69.91;101426.13;5029729;28;20178;-73
2022/09/02 02:02:02;;;;;;;8.20;3.40;;;;;;;13.62;68.58;101427.84;5029469;28;20373;-73
2022/09/02 02:04:27;;;;;;;9.70;3.47;;;;;;;13.62;69.32;101432.41;5029217;28;20112;-73
2022/09/02 02:06:53;;;;;;;12.73;4.45;;;;;;;13.61;69.48;101431.53;5021618;28;20038;-73
2022/09/02 02:09:19;;;;;;;12.60;3.85;;;;;;;13.63;70.63;101434.97;5029514;28;20061;-73
2022/09/02 02:11:44;;;;;;;11.35;4.28;;;;;;;13.61;69.82;101434.22;5028531;28;20150;-73
2022/09/02 02:14:10;;;;;;;18.38;3.80;;;;;;;13.60;69.80;101429.81;5030315;28;20021;-73
2022/09/02 02:16:36;;;;;;;10.52;4.05;;;;;;;13.59;69.38;101422.69;5028779;28;20127;-73
2022/09/02 02:19:01;;;;;;;9.23;3.80;;;;;;;13.61;71.10;101423.41;5029437;28;20065;-73
2022/09/02 02:21:26;;;;;;;11.38;4.35;;;;;;;13.63;70.34;101432.28;5030493;28;20480;-73
2022/09/02 02:23:52;;;;;;;12.07;4.28;;;;;;;13.66;69.92;101433.00;5028254;28;20053;-72
2022/09/02 02:26:17;;;;;;;11.35;3.90;;;;;;;13.67;69.07;101418.53;5028581;28;20474;-73
2022/09/02 02:28:43;;;;;;;11.40;4.03;;;;;;;13.69;71.00;101419.25;5028925;28;20586;-73
2022/09/02 02:31:08;;;;;;;11.15;3.83;;;;;;;13.69;69.43;101424.66;5043210;28;20021;-73
2022/09/02 02:33:34;;;;;;;9.98;3.78;;;;;;;13.68;70.06;101426.50;5030114;28;20021;-73
2022/09/02 02:36:00;;;;;;;9.63;3.90;;;;;;;13.74;70.05;101415.22;5027998;28;20025;-73
2022/09/02 02:38:25;;;;;;;12.02;3.97;;;;;;;13.76;71.75;101415.09;5028546;28;20447;-73
2022/09/02 02:40:56;;;;;;;9.52;3.90;;;;;;;13.77;69.54;101416.84;5030653;28;20025;-73
2022/09/02 02:43:21;;;;;;;12.82;3.95;;;;;;;13.79;69.96;101406.75;5036241;28;20037;-73
2022/09/02 02:45:47;;;;;;;10.80;3.78;;;;;;;13.79;68.98;101409.47;5035288;28;20450;-73
2022/09/02 02:48:12;;;;;;;10.38;4.15;;;;;;;13.81;69.00;101410.22;5035479;28;20057;-73
2022/09/02 02:50:38;;;;;;;9.55;3.47;;;;;;;13.80;68.25;101411.19;5035746;28;20029;-73
2022/09/02 02:53:03;;;;;;;14.50;4.47;;;;;;;13.85;69.86;101413.53;5032792;28;20102;-73
2022/09/02 02:55:28;;;;;;;11.52;4.00;;;;;;;13.85;69.78;101402.72;5034055;28;20055;-73
2022/09/02 02:57:54;;;;;;;9.32;3.50;;;;;;;13.87;70.15;101415.13;5034966;28;20037;-73
2022/09/02 03:00:22;;;;;;;11.98;3.92;;;;;;;13.83;69.56;101412.81;5051409;28;20033;-73
2022/09/02 03:02:48;;;;;;;11.20;4.22;;;;;;;13.85;68.80;101406.31;5033896;28;20055;-73
2022/09/02 03:05:14;;;;;;;11.38;3.83;;;;;;;13.88;69.58;101408.75;5035975;28;20033;-72
2022/09/02 03:07:40;;;;;;;11.35;4.10;;;;;;;13.86;69.16;101408.00;5037126;28;20087;-72
2022/09/02 03:10:07;;;;;;;8.95;3.90;;;;;;;13.89;70.23;101405.06;5036343;28;20033;-72
2022/09/02 03:12:34;;;;;;;15.45;4.18;;;;;;;13.86;68.77;101405.31;5028301;28;20381;-72
2022/09/02 03:15:00;;;;;;;12.48;3.88;;;;;;;13.91;67.19;101402.22;5034985;28;20285;-72
2022/09/02 03:17:25;;;;;;;14.35;4.20;;;;;;;13.91;69.52;101397.72;5035639;28;20029;-73
2022/09/02 03:19:51;;;;;;;11.43;4.03;;;;;;;13.93;68.23;101401.13;5036626;28;20033;-73
2022/09/02 03:22:16;;;;;;;14.40;4.35;;;;;;;13.91;67.92;101399.53;5035108;28;20112;-73
2022/09/02 03:24:42;;;;;;;11.98;4.07;;;;;;;13.91;69.42;101404.94;5036385;28;20488;-73
2022/09/02 03:27:07;;;;;;;15.35;4.30;;;;;;;13.88;67.95;101403.34;5034710;28;20433;-73
2022/09/02 03:29:32;;;;;;;13.05;4.75;;;;;;;13.85;68.40;101397.31;5045524;28;20033;-73
2022/09/02 03:31:59;;;;;;;16.77;4.88;;;;;;;13.80;69.72;101392.28;5030401;28;20063;-73
2022/09/02 03:34:24;;;;;;;15.43;5.05;;;;;;;13.76;68.57;101396.19;5049325;28;20065;-73
2022/09/02 03:36:50;;;;;;;12.60;4.53;;;;;;;13.72;68.65;101390.19;5030884;28;20061;-73
2022/09/02 03:39:15;;;;;;;14.40;4.95;;;;;;;13.69;69.32;101389.56;5035595;28;20503;-73
2022/09/02 03:41:40;;;;;;;12.50;4.75;;;;;;;13.66;68.24;101387.97;5034083;28;20029;-73
2022/09/02 03:44:06;;;;;;;13.38;4.68;;;;;;;13.64;69.83;101388.06;5033883;28;20066;-73
2022/09/02 03:46:32;;;;;;;14.65;4.70;;;;;;;13.62;69.88;101384.63;5036493;28;20037;-73
2022/09/02 03:48:57;;;;;;;10.63;4.25;;;;;;;13.60;68.43;101386.59;5035215;28;20380;-73
2022/09/02 03:51:25;;;;;;;13.75;4.20;;;;;;;13.57;69.37;101385.97;5035072;28;20081;-73
2022/09/02 03:53:50;;;;;;;17.27;4.80;;;;;;;13.53;68.46;101392.56;5030009;28;20353;-73
2022/09/02 03:56:16;;;;;;;15.82;5.07;;;;;;;13.49;68.92;101378.47;5030762;28;20021;-73
2022/09/02 03:58:44;;;;;;;12.60;4.68;;;;;;;13.45;68.79;101376.97;5030109;28;20040;-72
2022/09/02 04:01:19;;;;;;;12.95;4.78;;;;;;;13.42;69.17;101377.22;5025667;28;20025;-72
2022/09/02 04:03:44;;;;;;;15.98;5.13;;;;;;;13.40;70.31;101376.47;5031326;28;20033;-72
2022/09/02 04:06:11;;;;;;;18.35;5.85;;;;;;;13.39;70.76;101377.47;5032023;28;20505;-72
2022/09/02 04:08:37;;;;;;;12.90;5.07;;;;;;;13.34;68.85;101382.28;5030848;28;20037;-72
2022/09/02 04:11:13;;;;;;;15.50;5.30;;;;;;;13.32;70.17;101377.00;5032178;28;20448;-72
2022/09/02 04:13:39;;;;;;;18.95;6.28;;;;;;;13.29;70.14;101383.53;5030867;28;20032;-72
2022/09/02 04:16:10;;;;;;;16.02;5.28;;;;;;;13.27;70.08;101380.06;5032574;28;20025;-72
2022/09/02 04:18:36;;;;;;;19.08;5.95;;;;;;;13.25;69.36;101373.94;5030909;28;20152;-73
2022/09/02 04:21:03;;;;;;;13.10;5.22;;;;;;;13.24;69.99;101368.66;5023155;28;20147;-73
2022/09/02 04:23:29;;;;;;;17.88;6.32;;;;;;;13.22;70.09;101374.19;5043671;28;20045;-73
2022/09/02 04:25:55;;;;;;;18.02;6.00;;;;;;;13.17;71.11;101367.41;5042556;28;20485;-73
2022/09/02 04:28:21;;;;;;;16.27;5.80;;;;;;;13.13;70.26;101365.91;5028895;28;20112;-73
2022/09/02 04:30:47;;;;;;;13.60;5.35;;;;;;;13.11;70.98;101374.13;5032336;28;20030;-73
2022/09/02 04:33:13;;;;;;;18.08;5.95;;;;;;;13.09;71.04;101366.16;5029824;28;20036;-73
2022/09/02 04:35:42;;;;;;;15.85;5.60;;;;;;;13.06;70.72;101363.69;5029906;28;20041;-73
2022/09/02 04:38:08;;;;;;;19.48;6.20;;;;;;;13.08;71.82;101366.28;5032550;28;20047;-73
2022/09/02 04:40:34;;;;;;;16.10;6.13;;;;;;;13.08;70.31;101367.13;5032150;28;20025;-73
2022/09/02 04:42:59;;;;;;;17.67;5.95;;;;;;;13.08;70.61;101356.31;5030461;28;20332;-73
2022/09/02 04:45:25;;;;;;;18.10;6.68;;;;;;;13.11;71.24;101363.34;5031745;28;20029;-73
2022/09/02 04:47:50;;;;;;;18.52;6.32;;;;;;;13.12;70.68;101359.66;5030665;28;20029;-73
2022/09/02 04:50:15;;;;;;;19.98;6.43;;;;;;;13.17;71.81;101370.09;5031430;28;20017;-73
2022/09/02 04:52:41;;;;;;;19.65;7.20;;;;;;;13.17;70.96;101362.88;5031382;28;20041;-73
2022/09/02 04:55:06;;;;;;;18.35;6.63;;;;;;;13.20;71.72;101362.63;5032163;28;20060;-73
2022/09/02 04:57:32;;;;;;;18.35;6.65;;;;;;;13.25;71.27;101364.97;5030428;28;20531;-73
2022/09/02 04:59:57;;;;;;;18.17;7.05;;;;;;;13.29;70.78;101364.63;5031000;28;20435;-73
2022/09/02 05:02:23;;;;;;;16.33;6.50;;;;;;;13.34;71.09;101366.09;5027343;28;20033;-73
2022/09/02 05:04:48;;;;;;;19.60;7.20;;;;;;;13.42;71.54;101366.41;5028031;28;20042;-73
2022/09/02 05:07:14;;;;;;;19.20;7.75;;;;;;;13.48;73.47;101365.09;5031274;28;20049;-73
2022/09/02 05:09:40;;;;;;;18.60;7.53;;;;;;;13.53;71.48;101368.28;5029220;28;20121;-73
2022/09/02 05:12:06;;;;;;;20.23;7.53;;;;;;;13.57;70.70;101356.25;5030295;28;20373;-73
2022/09/02 05:14:34;;;;;;;21.60;8.50;;;;;;;13.61;71.67;101366.69;5029547;28;20459;-73
2022/09/02 05:16:59;;;;;;;22.60;8.38;;;;;;;13.65;70.73;101364.63;5029784;28;20025;-73
2022/09/02 05:19:25;;;;;;;23.63;8.00;;;;;;;13.70;71.93;101361.56;5029930;28;20033;-73
2022/09/02 05:21:56;;;;;;;23.67;8.82;;;;;;;13.75;70.33;101359.38;5030141;28;20017;-73
2022/09/02 05:24:21;;;;;;;21.20;9.00;;;;;;;13.80;71.76;101359.88;5028255;28;20136;-73
2022/09/02 05:26:48;;;;;;;24.65;9.70;;;;;;;13.83;70.63;101359.63;5045680;28;20029;-73
2022/09/02 05:29:14;;;;;;;22.33;8.93;;;;;;;13.86;70.79;101364.78;5031210;28;20439;-73
2022/09/02 05:31:40;;;;;;;24.35;10.63;;;;;;;13.94;71.76;101364.19;5030726;28;20021;-73
2022/09/02 05:34:07;;;;;;;26.88;9.90;;;;;;;13.97;72.17;101364.78;5029135;28;20124;-73
2022/09/02 05:36:32;;;;;;;22.83;9.60;;;;;;;14.02;71.21;101364.41;5029043;28;20061;-73
2022/09/02 05:38:58;;;;;;;22.40;10.35;;;;;;;14.06;71.58;101356.94;5029875;28;20381;-73
2022/09/02 05:41:24;;;;;;;24.85;10.43;;;;;;;14.11;71.70;101368.22;5028157;28;20064;-73
2022/09/02 05:43:52;;;;;;;24.40;11.60;;;;;;;14.16;73.99;101366.88;5030561;28;20437;-73
2022/09/02 05:46:20;;;;;;;22.50;10.30;;;;;;;14.22;71.97;101361.97;5029241;28;20075;-73
2022/09/02 05:49:05;;;;;;;25.67;11.60;;;;;;;14.26;72.29;101366.13;5028073;28;20021;-73
2022/09/02 05:51:38;;;;;;;24.40;10.73;;;;;;;14.30;72.78;101365.75;5028845;28;20057;-73
2022/09/02 05:54:03;;;;;;;21.92;10.63;;;;;;;14.36;72.18;101363.56;5028540;28;20025;-73
2022/09/02 05:56:28;;;;;;;24.30;11.07;;;;;;;14.39;71.09;101360.59;5026929;28;20036;-73
2022/09/02 05:58:57;;;;;;;23.40;10.88;;;;;;;14.43;71.98;101367.47;5029191;28;20025;-73
2022/09/02 06:01:23;;;;;;;24.85;11.52;;;;;;;14.46;70.59;101359.13;5026149;28;20025;-73
2022/09/02 06:03:49;;;;;;;24.30;10.55;;;;;;;14.51;71.76;101359.59;5028954;28;20033;-73
2022/09/02 06:06:14;;;;;;;22.88;9.70;;;;;;;14.55;71.17;101362.91;5027031;28;20161;-72
2022/09/02 06:08:40;;;;;;;25.88;10.55;;;;;;;14.57;72.56;101356.41;5028343;28;20428;-73
2022/09/02 06:11:08;;;;;;;24.67;11.27;;;;;;;14.62;72.17;101358.75;5027678;28;20022;-73
2022/09/02 06:13:36;;;;;;;25.10;11.27;;;;;;;14.66;71.71;101357.50;5028634;28;20039;-73
2022/09/02 06:16:02;;;;;;;27.63;11.52;;;;;;;14.70;69.74;101363.50;5027271;28;20033;-73
2022/09/02 06:18:28;;;;;;;26.00;11.82;;;;;;;14.73;67.92;101365.97;5029310;28;20306;-73
2022/09/02 06:20:53;;;;;;;25.17;12.70;;;;;;;14.79;71.17;101360.91;5026620;28;20125;-73
2022/09/02 06:23:19;;;;;;;28.23;13.77;;;;;;;14.84;71.08;101360.53;5025308;28;21130;-73
2022/09/02 06:25:46;;;;;;;25.20;13.55;;;;;;;14.89;68.31;101360.13;5028552;28;20029;-73
2022/09/02 06:28:12;;;;;;;28.77;13.18;;;;;;;14.93;68.10;101348.94;5029308;28;20056;-73
2022/09/02 06:31:00;;;;;;;29.05;13.82;;;;;;;14.99;67.66;101351.16;5029153;28;20540;-74
2022/09/02 06:33:25;;;;;;;28.55;13.93;;;;;;;15.06;69.45;101358.75;5029269;28;20089;-73
2022/09/02 06:35:50;;;;;;;30.13;15.35;;;;;;;15.11;69.99;101353.78;5029496;28;20038;-73
2022/09/02 06:38:16;;;;;;;33.92;15.63;;;;;;;15.15;66.97;101349.81;5024444;28;20017;-73
2022/09/02 06:40:47;;;;;;;31.48;15.73;;;;;;;15.22;66.34;101352.88;5026924;28;20056;-73
2022/09/02 06:43:12;;;;;;;26.27;13.20;;;;;;;15.26;66.52;101352.50;5026455;28;20030;-73
2022/09/02 06:45:39;;;;;;;31.30;16.38;;;;;;;15.33;65.50;101345.56;5023290;28;20060;-73
2022/09/02 06:48:04;;;;;;;27.65;13.65;;;;;;;15.40;66.10;101347.75;5026962;28;20033;-73
2022/09/02 06:50:30;;;;;;;27.83;13.75;;;;;;;15.44;64.96;101347.34;5025787;28;20068;-73
2022/09/02 06:52:55;;;;;;;31.88;15.98;;;;;;;15.50;65.78;101348.66;5028656;28;20062;-73
2022/09/02 06:55:20;;;;;;;33.53;17.70;;;;;;;15.56;66.10;101342.72;5027456;28;20041;-73
2022/09/02 06:57:46;;;;;;;32.38;16.38;;;;;;;15.62;63.96;101353.00;5042326;28;20029;-73
2022/09/02 07:00:11;;;;;;;30.25;15.05;;;;;;;15.65;64.77;101350.06;5026937;28;20410;-73
2022/09/02 07:02:37;;;;;;;33.53;16.50;;;;;;;15.70;64.41;101352.34;5028050;28;20120;-73
2022/09/02 07:05:08;;;;;;;34.42;16.90;;;;;;;15.75;64.53;101341.97;5028063;28;20094;-73
2022/09/02 07:07:39;;;;;;;32.95;15.63;;;;;;;15.80;63.62;101345.16;5026996;28;20358;-73
2022/09/02 07:10:07;;;;;;;30.63;16.92;;;;;;;15.85;64.72;101342.06;5025186;28;20045;-72
2022/09/02 07:12:34;;;;;;;34.30;16.98;;;;;;;15.90;64.50;101334.34;5031964;28;20651;-72
2022/09/02 07:14:59;;;;;;;31.50;17.30;;;;;;;15.94;64.02;101340.38;5027783;28;20122;-73
2022/09/02 07:17:24;;;;;;;34.28;17.33;;;;;;;16.00;63.40;101338.00;5027061;28;20120;-73
2022/09/02 07:19:50;;;;;;;33.92;16.35;;;;;;;16.05;62.90;101333.00;5027905;28;20076;-73
2022/09/02 07:22:16;;;;;;;32.70;16.55;;;;;;;16.11;62.44;101338.91;5023658;28;20142;-73
2022/09/02 07:24:41;;;;;;;36.22;16.77;;;;;;;16.18;63.11;101343.63;5025550;28;20099;-73
2022/09/02 07:27:07;;;;;;;28.98;15.75;;;;;;;16.24;63.28;101342.22;5040498;28;20042;-73
2022/09/02 07:29:33;;;;;;;31.08;16.02;;;;;;;16.29;63.29;101333.66;5030322;28;20025;-73
2022/09/02 07:31:59;;;;;;;28.50;15.68;;;;;;;16.34;63.20;101328.69;5030714;28;20179;-73
2022/09/02 07:34:24;;;;;;;33.83;17.17;;;;;;;16.39;63.88;101327.25;5028345;28;20465;-73
2022/09/02 07:36:50;;;;;;;29.52;15.77;;;;;;;16.45;62.11;101334.00;5030878;28;20031;-73
2022/09/02 07:39:17;;;;;;;31.42;15.50;;;;;;;16.49;61.54;101338.16;5028309;28;20340;-72
2022/09/02 07:41:45;;;;;;;37.35;17.25;;;;;;;16.57;62.29;101334.72;5026314;28;20037;-73
2022/09/02 07:44:11;;;;;;;34.90;15.35;;;;;;;16.60;62.82;101338.03;5028939;28;20033;-73
2022/09/02 07:46:37;;;;;;;32.33;15.85;;;;;;;16.67;61.55;101334.75;5031071;28;20056;-73
2022/09/02 07:49:07;;;;;;;31.92;15.18;;;;;;;16.70;61.55;101332.59;5029025;28;20033;-73
2022/09/02 07:51:34;;;;;;;32.67;16.55;;;;;;;16.75;60.92;101338.47;5030069;28;20039;-73
2022/09/02 07:54:00;;;;;;;33.38;16.90;;;;;;;16.81;61.65;101339.78;5028977;28;20468;-73
2022/09/02 07:56:25;;;;;;;30.60;16.33;;;;;;;16.85;60.94;101333.06;5030604;28;20489;-73
2022/09/02 07:58:51;;;;;;;30.90;16.27;;;;;;;16.90;61.37;101332.69;5030108;28;20033;-73
2022/09/02 08:01:16;;;;;;;36.63;16.92;;;;;;;16.94;60.05;101334.97;5028645;28;20084;-73
2022/09/02 08:03:43;;;;;;;27.50;15.35;;;;;;;16.99;60.30;101330.97;5030195;28;20209;-73
2022/09/02 08:06:09;;;;;;;30.95;15.15;;;;;;;17.04;60.55;101337.69;5044022;28;20491;-73
2022/09/02 08:08:35;;;;;;;31.73;15.68;;;;;;;17.10;61.46;101331.69;5029940;28;20124;-73
2022/09/02 08:11:01;;;;;;;34.33;14.93;;;;;;;17.15;60.99;101333.09;5028747;28;20333;-73
2022/09/02 08:13:26;;;;;;;28.08;14.43;;;;;;;17.18;61.82;101332.81;5030202;28;20109;-73
2022/09/02 08:15:52;;;;;;;31.10;13.77;;;;;;;17.22;60.47;101334.22;5031200;28;20018;-73
2022/09/02 08:18:18;;;;;;;36.72;15.68;;;;;;;17.25;60.23;101328.53;5030595;28;20044;-72
2022/09/02 08:20:43;;;;;;;29.98;15.90;;;;;;;17.28;60.06;101322.81;5031867;28;20057;-72
2022/09/02 08:23:09;;;;;;;30.00;15.23;;;;;;;17.35;59.89;101321.22;5030801;28;20033;-73
2022/09/02 08:25:35;;;;;;;30.23;15.45;;;;;;;17.39;61.01;101319.91;5028842;28;20033;-73
2022/09/02 08:28:00;;;;;;;31.50;15.30;;;;;;;17.47;59.75;101313.75;5045191;28;20029;-73
2022/09/02 08:30:26;;;;;;;29.20;14.30;;;;;;;17.51;59.39;101312.47;5029850;28;20033;-72
2022/09/02 08:32:52;;;;;;;29.38;13.60;;;;;;;17.56;60.63;101315.59;5030962;28;20108;-72
2022/09/02 08:35:17;;;;;;;27.58;13.27;;;;;;;17.59;60.95;101307.13;5032032;28;20024;-73
2022/09/02 08:37:42;;;;;;;38.00;14.43;;;;;;;17.66;59.21;101304.69;5028109;28;20060;-73
2022/09/02 08:40:15;;;;;;;28.88;14.15;;;;;;;17.73;60.00;101305.81;5028806;28;20121;-73
2022/09/02 08:42:52;;;;;;;26.88;13.25;;;;;;;17.78;59.95;101308.94;5028387;28;20417;-73
2022/09/02 08:45:31;;;;;;;25.20;13.10;;;;;;;17.85;60.27;101314.66;5027678;28;20413;-73
2022/09/02 08:48:03;;;;;;;26.40;12.97;;;;;;;17.93;59.52;101316.66;5029116;28;20025;-73
2022/09/02 08:50:30;;;;;;;29.35;14.10;;;;;;;17.97;59.69;101309.91;5029801;28;20040;-73
2022/09/02 08:53:03;;;;;;;29.55;13.98;;;;;;;18.01;59.61;101308.59;5028320;28;20029;-73
2022/09/02 08:55:42;;;;;;;33.80;14.18;;;;;;;18.06;59.70;101317.16;5042065;28;20033;-73
2022/09/02 08:58:07;;;;;;;27.92;12.95;;;;;;;18.13;59.81;101312.00;5027649;28;20034;-74
2022/09/02 09:00:38;;;;;;;27.90;12.80;;;;;;;18.15;61.13;101315.41;5026707;28;20037;-74
2022/09/02 09:03:57;;;;;;;27.45;13.10;;;;;;;18.23;60.53;101314.63;5023896;28;20026;-74
2022/09/02 09:06:29;;;;;;;27.50;11.45;;;;;;;18.31;59.75;101314.75;5016402;28;20095;-74
2022/09/02 09:09:24;;;;;;;27.40;10.57;;;;;;;18.37;59.42;101319.56;5039732;28;20041;-73
2022/09/02 09:12:30;;;;;;;22.77;10.45;;;;;;;18.46;59.28;101315.97;5025278;28;20433;-73
2022/09/02 09:15:12;;;;;;;24.25;9.88;;;;;;;18.52;59.89;101318.06;5018952;28;20049;-73
2022/09/02 09:18:01;;;;;;;26.15;9.07;;;;;;;18.56;58.79;101320.47;5026021;28;20028;-73
2022/09/02 09:20:31;;;;;;;22.05;8.45;;;;;;;18.62;57.89;101315.25;5024638;28;20116;-73
2022/09/02 09:22:59;;;;;;;20.08;7.53;;;;;;;18.68;58.10;101313.78;5023348;28;20464;-73
2022/09/02 09:25:30;;;;;;;22.98;8.20;;;;;;;18.74;57.60;101310.47;5029089;28;20037;-73
2022/09/02 09:27:59;;;;;;;23.85;7.32;;;;;;;18.79;58.25;101318.16;5030580;28;20026;-73
2022/09/02 09:30:25;;;;;;;;;;;;;;;18.80;59.53;101309.84;5045370;28;20411;-73
2022/09/02 09:32:58;;;;;;;23.42;6.60;;;;;;;18.88;59.58;101313.69;5027612;28;20085;-74
2022/09/02 09:35:25;;;;;;;19.33;6.65;;;;;;;18.95;58.89;101318.34;5030460;28;20045;-74
2022/09/02 09:37:52;;;;;;;16.13;6.05;;;;;;;19.01;57.54;101305.97;5029642;28;20036;-73
2022/09/02 09:40:20;;;;;;;15.93;6.25;;;;;;;19.07;57.14;101305.34;5042459;28;20034;-73
2022/09/02 09:42:47;;;;;;;19.83;7.05;;;;;;;19.18;56.84;101307.81;5028909;28;20037;-73
2022/09/02 09:45:25;;;;;;;15.48;5.35;;;;;;;19.24;58.38;101297.28;5029419;28;20025;-73
2022/09/02 09:48:39;;;;;;;13.50;5.40;;;;;;;19.34;57.27;101306.22;5026239;28;20392;-73
2022/09/02 09:51:02;;;;;;;14.73;4.65;;;;;;;19.37;58.82;101290.44;5024422;28;20090;-73
2022/09/02 09:53:31;;;;;;;16.55;5.78;;;;;;;19.37;58.54;101290.44;5026536;28;20478;-74
2022/09/02 09:56:05;;;;;;;13.30;4.95;;;;;;;19.51;56.44;101293.56;5032527;28;20025;-74
2022/09/02 09:58:39;;;;;;;13.55;4.40;;;;;;;19.57;57.90;101295.66;5027669;28;20550;-74
2022/09/02 10:01:18;;;;;;;15.10;4.38;;;;;;;19.67;58.02;101282.75;5029384;28;20491;-74
2022/09/02 10:03:51;;;;;;;14.43;4.32;;;;;;;19.69;59.67;101282.59;5027294;28;20056;-74
2022/09/02 10:06:21;;;;;;;14.48;4.68;;;;;;;19.79;57.71;101283.38;5044442;28;20148;-73
2022/09/02 10:08:55;;;;;;;18.83;6.57;;;;;;;19.84;59.09;101280.16;5028643;28;20487;-73
2022/09/02 10:11:28;;;;;;;14.73;4.88;;;;;;;19.89;57.66;101278.66;5026041;28;20040;-73
2022/09/02 10:14:02;;;;;;;18.88;5.88;;;;;;;19.97;57.21;101279.69;5028660;28;20369;-73
2022/09/02 10:16:36;;;;;;;16.17;6.13;;;;;;;20.00;58.67;101277.50;5037643;28;20094;-74
2022/09/02 10:19:36;;;;;;;20.02;7.35;;;;;;;20.03;59.28;101276.31;5047828;28;20064;-74
2022/09/02 10:22:26;;;;;;;13.57;4.07;;;;;;;20.16;55.66;101274.00;5023298;28;20083;-74
2022/09/02 10:25:38;;;;;;;16.83;5.20;;;;;;;20.22;54.40;101267.88;5026526;28;20420;-73
2022/09/02 10:28:29;;;;;;;18.65;4.88;;;;;;;20.34;54.16;101267.56;5026780;28;20053;-73
2022/09/02 10:31:12;;;;;;;24.73;5.80;;;;;;;20.37;54.45;101259.03;5028339;28;20473;-73
2022/09/02 10:34:07;;;;;;;13.32;4.38;;;;;;;20.49;54.38;101268.63;5027996;28;20413;-73
2022/09/02 10:37:11;;;;;;;12.20;4.55;;;;;;;20.53;54.31;101256.34;5019004;28;22157;-74
2022/09/02 10:39:51;;;;;;;16.13;5.05;;;;;;;20.58;54.93;101264.88;5028484;28;20044;-74
2022/09/02 10:42:38;;;;;;;14.50;3.55;;;;;;;20.74;50.54;101260.50;5026570;28;20025;-74
2022/09/02 10:45:12;;;;;;;11.20;4.32;;;;;;;20.89;51.07;101253.31;5029499;28;20040;-73
2022/09/02 10:47:39;;;;;;;18.13;6.70;;;;;;;20.81;54.22;101256.06;5030662;28;20368;-73
2022/09/02 10:50:42;;;;;;;8.73;3.53;;;;;;;20.84;52.44;101243.94;5030190;28;20550;-73
2022/09/02 10:53:08;;;;;;;16.67;6.68;;;;;;;20.78;54.57;101250.94;5026300;28;20132;-74
2022/09/02 10:55:51;;;;;;;17.50;6.10;;;;;;;20.76;55.61;101247.50;5030816;28;20111;-74
2022/09/02 10:58:34;;;;;;;14.43;4.72;;;;;;;20.73;55.59;101228.72;5018812;28;20357;-74
2022/09/02 11:01:02;;;;;;;11.98;3.90;;;;;;;20.85;53.67;101232.84;5027710;28;20128;-74
2022/09/02 11:03:45;;;;;;;11.15;4.50;;;;;;;20.94;51.12;101223.63;5026780;28;20503;-74
2022/09/02 11:06:24;;;;;;;16.58;5.35;;;;;;;20.94;53.93;101226.34;5029365;28;20057;-74
2022/09/02 11:08:59;;;;;;;14.68;5.05;;;;;;;20.99;51.67;101216.78;5033028;28;20032;-74
2022/09/02 11:11:59;;;;;;;11.13;4.45;;;;;;;21.01;54.44;101222.91;5034601;28;20361;-74
2022/09/02 11:14:31;;;;;;;7.82;3.72;;;;;;;21.15;48.24;101219.50;5012122;28;20076;-74
2022/09/02 11:17:07;;;;;;;14.13;4.30;;;;;;;21.18;50.31;101221.03;5009727;28;20041;-74
2022/09/02 11:19:48;;;;;;;11.90;4.07;;;;;;;21.27;51.98;101207.19;5012021;28;20032;-70
2022/09/02 11:22:25;;;;;;;12.20;4.32;;;;;;;21.33;52.48;101200.13;5009760;28;20034;-70
2022/09/02 11:25:06;;;;;;;17.02;5.63;;;;;;;21.22;54.38;101195.06;5007751;28;20037;-70